createdAt,value
2023-02-12T00:01:09.085Z,-3.88
2023-02-12T00:03:38.311Z,-3.85
2023-02-12T00:06:06.368Z,-3.81
2023-02-12T00:08:34.044Z,-3.79
2023-02-12T00:11:01.787Z,-3.74
2023-02-12T00:13:31.716Z,-3.70
2023-02-12T00:15:59.591Z,-3.70
2023-02-12T00:18:27.393Z,-3.69
2023-02-12T00:20:56.523Z,-3.64
2023-02-12T00:23:24.255Z,-3.66
2023-02-12T00:25:51.886Z,-3.63
2023-02-12T00:28:19.570Z,-3.60
2023-02-12T00:30:47.394Z,-3.58
2023-02-12T00:33:15.056Z,-3.58
2023-02-12T00:35:42.692Z,-3.56
2023-02-12T00:38:12.077Z,-3.50
2023-02-12T00:40:39.726Z,-3.45
2023-02-12T00:43:07.324Z,-3.40
2023-02-12T00:45:35.019Z,-3.37
2023-02-12T00:48:02.693Z,-3.35
2023-02-12T00:50:31.904Z,-3.34
2023-02-12T00:52:59.734Z,-3.38
2023-02-12T00:55:28.833Z,-3.39
2023-02-12T00:57:56.578Z,-3.36
2023-02-12T01:00:24.365Z,-3.37
2023-02-12T01:02:51.976Z,-3.34
2023-02-12T01:05:20.427Z,-3.39
2023-02-12T01:07:50.236Z,-3.43
2023-02-12T01:10:18.512Z,-3.45
2023-02-12T01:12:47.796Z,-3.42
2023-02-12T01:15:15.904Z,-3.39
2023-02-12T01:17:43.627Z,-3.49
2023-02-12T01:20:13.216Z,-3.49
2023-02-12T01:22:41.377Z,-3.44
2023-02-12T01:25:09.464Z,-3.45
2023-02-12T01:27:37.116Z,-3.40
2023-02-12T01:30:07.484Z,-3.41
2023-02-12T01:32:35.499Z,-3.43
2023-02-12T01:35:03.397Z,-3.45
2023-02-12T01:37:31.001Z,-3.38
2023-02-12T01:39:58.620Z,-3.40
2023-02-12T01:42:26.310Z,-3.39
2023-02-12T01:45:12.420Z,-3.37
2023-02-12T01:47:41.473Z,-3.36
2023-02-12T01:50:11.791Z,-3.32
2023-02-12T01:52:41.157Z,-3.27
2023-02-12T01:55:10.571Z,-3.26
2023-02-12T01:57:40.181Z,-3.20
2023-02-12T02:00:09.798Z,-3.17
2023-02-12T02:02:38.316Z,-3.14
2023-02-12T02:05:08.250Z,-3.06
2023-02-12T02:07:35.924Z,-2.99
2023-02-12T02:10:03.731Z,-2.93
2023-02-12T02:12:49.328Z,-2.86
2023-02-12T02:15:16.983Z,-2.80
2023-02-12T02:17:51.182Z,-2.75
2023-02-12T02:20:39.670Z,-2.69
2023-02-12T02:23:18.457Z,-2.63
2023-02-12T02:26:00.968Z,-2.60
2023-02-12T02:28:42.425Z,-2.54
2023-02-12T02:31:16.291Z,-2.52
2023-02-12T02:33:50.060Z,-2.54
2023-02-12T02:36:25.791Z,-2.54
2023-02-12T02:38:57.297Z,-2.49
2023-02-12T02:41:28.608Z,-2.50
2023-02-12T02:43:56.642Z,-2.47
2023-02-12T02:46:29.255Z,-2.45
2023-02-12T02:49:00.605Z,-2.43
2023-02-12T02:51:30.558Z,-2.40
2023-02-12T02:53:59.593Z,-2.38
2023-02-12T02:56:28.721Z,-2.43
2023-02-12T02:58:58.080Z,-2.42
2023-02-12T03:01:31.233Z,-2.39
2023-02-12T03:04:02.632Z,-2.39
2023-02-12T03:06:33.676Z,-2.38
2023-02-12T03:09:05.428Z,-2.29
2023-02-12T03:11:34.680Z,-2.23
2023-02-12T03:14:05.407Z,-2.17
2023-02-12T03:16:36.139Z,-2.16
2023-02-12T03:19:07.270Z,-2.19
2023-02-12T03:21:37.008Z,-2.16
2023-02-12T03:24:09.085Z,-2.15
2023-02-12T03:26:40.616Z,-2.15
2023-02-12T03:29:08.331Z,-2.15
2023-02-12T03:31:41.317Z,-2.07
2023-02-12T03:34:12.613Z,-2.01
2023-02-12T03:36:45.618Z,-2.02
2023-02-12T03:39:17.766Z,-2.00
2023-02-12T03:41:48.156Z,-2.03
2023-02-12T03:44:19.419Z,-1.99
2023-02-12T03:46:56.788Z,-1.99
2023-02-12T03:49:27.956Z,-1.98
2023-02-12T03:51:55.711Z,-1.96
2023-02-12T03:54:23.740Z,-1.91
2023-02-12T03:56:53.290Z,-1.88
2023-02-12T03:59:21.211Z,-1.87
2023-02-12T04:01:51.406Z,-1.84
2023-02-12T04:04:19.254Z,-1.81
2023-02-12T04:06:47.840Z,-1.79
2023-02-12T04:09:16.164Z,-1.74
2023-02-12T04:11:48.556Z,-1.77
2023-02-12T04:14:22.175Z,-1.70
2023-02-12T04:16:53.233Z,-1.70
2023-02-12T04:19:27.613Z,-1.67
2023-02-12T04:22:05.378Z,-1.64
2023-02-12T04:24:38.797Z,-1.62
2023-02-12T04:27:11.580Z,-1.62
2023-02-12T04:29:44.136Z,-1.58
2023-02-12T04:32:16.173Z,-1.55
2023-02-12T04:34:49.653Z,-1.55
2023-02-12T04:37:19.126Z,-1.53
2023-02-12T04:39:47.239Z,-1.51
2023-02-12T04:42:15.093Z,-1.45
2023-02-12T04:44:44.116Z,-1.43
2023-02-12T04:47:13.228Z,-1.42
2023-02-12T04:49:40.952Z,-1.46
2023-02-12T04:52:09.241Z,-1.45
2023-02-12T04:54:36.998Z,-1.40
2023-02-12T04:57:04.792Z,-1.38
2023-02-12T04:59:32.440Z,-1.39
2023-02-12T05:02:00.218Z,-1.36
2023-02-12T05:04:29.334Z,-1.35
2023-02-12T05:06:57.005Z,-1.36
2023-02-12T05:09:24.659Z,-1.35
2023-02-12T05:11:52.388Z,-1.31
2023-02-12T05:14:20.116Z,-1.34
2023-02-12T05:16:47.728Z,-1.37
2023-02-12T05:19:15.378Z,-1.30
2023-02-12T05:21:44.406Z,-1.25
2023-02-12T05:24:12.252Z,-1.24
2023-02-12T05:26:39.908Z,-1.25
2023-02-12T05:29:07.564Z,-1.28
2023-02-12T05:31:35.511Z,-1.26
2023-02-12T05:34:03.315Z,-1.25
2023-02-12T05:36:31.008Z,-1.24
2023-02-12T05:39:00.973Z,-1.20
2023-02-12T05:41:29.102Z,-1.20
2023-02-12T05:43:56.805Z,-1.19
2023-02-12T05:46:24.543Z,-1.16
2023-02-12T05:48:52.267Z,-1.18
2023-02-12T05:51:21.916Z,-1.24
2023-02-12T05:53:50.000Z,-1.23
2023-02-12T05:56:20.034Z,-1.18
2023-02-12T05:58:48.455Z,-1.15
2023-02-12T06:01:17.673Z,-1.18
2023-02-12T06:03:45.579Z,-1.18
2023-02-12T06:06:13.717Z,-1.17
2023-02-12T06:08:41.421Z,-1.17
2023-02-12T06:11:12.190Z,-1.16
2023-02-12T06:13:41.508Z,-1.14
2023-02-12T06:16:09.314Z,-1.16
2023-02-12T06:18:37.049Z,-1.16
2023-02-12T06:21:04.889Z,-1.12
2023-02-12T06:23:32.556Z,-1.12
2023-02-12T06:26:00.277Z,-1.14
2023-02-12T06:28:28.098Z,-1.10
2023-02-12T06:30:57.409Z,-1.11
2023-02-12T06:33:25.189Z,-1.05
2023-02-12T06:35:52.940Z,-1.02
2023-02-12T06:38:20.665Z,-1.02
2023-02-12T06:40:48.269Z,-1.02
2023-02-12T06:43:18.070Z,-1.01
2023-02-12T06:45:45.782Z,-0.99
2023-02-12T06:48:14.807Z,-0.96
2023-02-12T06:50:42.419Z,-0.93
2023-02-12T06:53:10.096Z,-0.92
2023-02-12T06:55:37.793Z,-0.95
2023-02-12T06:58:05.576Z,-0.92
2023-02-12T07:00:33.313Z,-0.92
2023-02-12T07:03:01.045Z,-0.92
2023-02-12T07:05:30.087Z,-0.89
2023-02-12T07:07:57.793Z,-0.86
2023-02-12T07:10:25.432Z,-0.85
2023-02-12T07:12:53.155Z,-0.83
2023-02-12T07:15:23.137Z,-0.81
2023-02-12T07:17:50.844Z,-0.79
2023-02-12T07:20:18.589Z,-0.79
2023-02-12T07:22:47.577Z,-0.77
2023-02-12T07:25:15.332Z,-0.77
2023-02-12T07:27:42.977Z,-0.72
2023-02-12T07:30:11.039Z,-0.69
2023-02-12T07:32:38.686Z,-0.66
2023-02-12T07:35:06.597Z,-0.64
2023-02-12T07:37:34.773Z,-0.63
2023-02-12T07:40:03.839Z,-0.62
2023-02-12T07:42:31.492Z,-0.59
2023-02-12T07:44:59.126Z,-0.57
2023-02-12T07:47:26.804Z,-0.54
2023-02-12T07:49:54.504Z,-0.53
2023-02-12T07:52:22.243Z,-0.49
2023-02-12T07:54:49.917Z,-0.45
2023-02-12T07:57:18.968Z,-0.44
2023-02-12T07:59:46.897Z,-0.38
2023-02-12T08:02:14.602Z,-0.36
2023-02-12T08:04:42.352Z,-0.32
2023-02-12T08:07:10.084Z,-0.34
2023-02-12T08:09:37.757Z,-0.31
2023-02-12T08:12:05.618Z,-0.26
2023-02-12T08:14:34.764Z,-0.24
2023-02-12T08:17:02.404Z,-0.22
2023-02-12T08:19:30.136Z,-0.19
2023-02-12T08:21:58.469Z,-0.18
2023-02-12T08:24:26.325Z,-0.15
2023-02-12T08:26:53.989Z,-0.14
2023-02-12T08:29:22.807Z,-0.12
2023-02-12T08:31:55.839Z,-0.13
2023-02-12T08:34:24.259Z,-0.06
2023-02-12T08:36:54.102Z,-0.01
2023-02-12T08:39:22.927Z,-0.02
2023-02-12T08:41:50.994Z,0.00
2023-02-12T08:44:18.864Z,0.05
2023-02-12T08:46:47.863Z,0.10
2023-02-12T08:49:17.853Z,0.15
2023-02-12T08:51:46.822Z,0.19
2023-02-12T08:54:15.375Z,0.25
2023-02-12T08:56:45.182Z,0.28
2023-02-12T08:59:13.322Z,0.30
2023-02-12T09:01:42.184Z,0.31
2023-02-12T09:04:18.682Z,0.35
2023-02-12T09:06:47.913Z,0.39
2023-02-12T09:09:15.605Z,0.43
2023-02-12T09:11:43.389Z,0.43
2023-02-12T09:14:13.141Z,0.48
2023-02-12T09:16:40.969Z,0.50
2023-02-12T09:19:09.283Z,0.52
2023-02-12T09:21:36.902Z,0.52
2023-02-12T09:24:06.072Z,0.54
2023-02-12T09:26:33.898Z,0.55
2023-02-12T09:29:02.947Z,0.57
2023-02-12T09:31:31.909Z,0.59
2023-02-12T09:34:00.825Z,0.61
2023-02-12T09:36:28.908Z,0.62
2023-02-12T09:38:56.682Z,0.64
2023-02-12T09:41:48.102Z,0.66
2023-02-12T09:44:20.293Z,0.69
2023-02-12T09:46:50.979Z,0.72
2023-02-12T09:49:24.886Z,0.74
2023-02-12T09:51:54.867Z,0.75
2023-02-12T09:54:24.323Z,0.77
2023-02-12T09:56:53.771Z,0.80
2023-02-12T09:59:29.946Z,0.80
2023-02-12T10:01:58.776Z,0.85
2023-02-12T10:04:27.650Z,0.87
2023-02-12T10:07:01.953Z,0.91
2023-02-12T10:09:37.082Z,0.95
2023-02-12T10:12:08.746Z,0.98
2023-02-12T10:14:44.858Z,1.02
2023-02-12T10:17:16.434Z,1.04
2023-02-12T10:19:54.992Z,1.05
2023-02-12T10:22:28.127Z,1.08
2023-02-12T10:25:02.287Z,1.10
2023-02-12T10:27:36.209Z,1.13
2023-02-12T10:30:15.070Z,1.15
2023-02-12T10:32:44.542Z,1.17
2023-02-12T10:35:14.477Z,1.21
2023-02-12T10:37:44.825Z,1.21
2023-02-12T10:40:17.927Z,1.25
2023-02-12T10:42:47.210Z,1.25
2023-02-12T10:45:17.483Z,1.31
2023-02-12T10:47:45.718Z,1.33
2023-02-12T10:50:18.900Z,1.35
2023-02-12T10:52:48.404Z,1.37
2023-02-12T10:55:33.965Z,1.40
2023-02-12T10:58:02.592Z,1.42
2023-02-12T11:00:32.778Z,1.44
2023-02-12T11:03:02.158Z,1.47
2023-02-12T11:05:31.727Z,1.49
2023-02-12T11:07:59.380Z,1.52
2023-02-12T11:10:28.801Z,1.55
2023-02-12T11:12:58.330Z,1.58
2023-02-12T11:15:27.116Z,1.63
2023-02-12T11:17:59.842Z,1.65
2023-02-12T11:20:29.255Z,1.69
2023-02-12T11:22:59.015Z,1.73
2023-02-12T11:25:28.750Z,1.74
2023-02-12T11:28:04.489Z,1.78
2023-02-12T11:30:32.560Z,1.81
2023-02-12T11:33:17.413Z,1.81
2023-02-12T11:35:55.215Z,1.83
2023-02-12T11:38:25.438Z,1.86
2023-02-12T11:40:55.686Z,1.87
2023-02-12T11:43:25.044Z,1.90
2023-02-12T11:45:56.331Z,1.90
2023-02-12T11:48:27.246Z,1.94
2023-02-12T11:50:56.270Z,1.95
2023-02-12T11:53:25.475Z,1.96
2023-02-12T11:55:57.346Z,1.98
2023-02-12T11:58:26.021Z,1.99
2023-02-12T12:00:56.535Z,2.00
2023-02-12T12:03:29.334Z,2.02
2023-02-12T12:06:00.718Z,2.07
2023-02-12T12:08:30.614Z,2.07
2023-02-12T12:11:01.335Z,2.08
2023-02-12T12:13:31.671Z,2.11
2023-02-12T12:16:23.219Z,2.10
2023-02-12T12:19:13.135Z,2.14
2023-02-12T12:21:42.735Z,2.16
2023-02-12T12:24:12.693Z,2.14
2023-02-12T12:26:41.666Z,2.15
2023-02-12T12:29:14.332Z,2.18
2023-02-12T12:31:44.285Z,2.20
2023-02-12T12:34:15.186Z,2.20
2023-02-12T12:37:03.668Z,2.17
2023-02-12T12:39:35.988Z,2.18
2023-02-12T12:42:24.548Z,2.19
2023-02-12T12:45:04.982Z,2.21
2023-02-12T12:47:40.358Z,2.22
2023-02-12T12:50:18.963Z,2.23
2023-02-12T12:52:53.648Z,2.25
2023-02-12T12:55:34.545Z,2.24
2023-02-12T12:58:07.143Z,2.23
2023-02-12T13:00:48.148Z,2.24
2023-02-12T13:03:41.094Z,2.26
2023-02-12T13:06:22.440Z,2.29
2023-02-12T13:09:05.374Z,2.27
2023-02-12T13:11:40.108Z,2.31
2023-02-12T13:14:22.484Z,2.30
2023-02-12T13:16:52.872Z,2.30
2023-02-12T13:19:26.718Z,2.31
2023-02-12T13:21:58.658Z,2.35
2023-02-12T13:24:30.665Z,2.35
2023-02-12T13:26:59.718Z,2.38
2023-02-12T13:29:29.221Z,2.33
2023-02-12T13:32:00.575Z,2.31
2023-02-12T13:34:30.731Z,2.29
2023-02-12T13:37:01.269Z,2.29
2023-02-12T13:39:33.277Z,2.31
2023-02-12T13:42:05.960Z,2.35
2023-02-12T13:44:37.787Z,2.39
2023-02-12T13:47:10.659Z,2.38
2023-02-12T13:49:43.091Z,2.39
2023-02-12T13:52:14.358Z,2.36
2023-02-12T13:54:53.069Z,2.35
2023-02-12T13:57:21.420Z,2.35
2023-02-12T13:59:50.018Z,2.36
2023-02-12T14:02:36.738Z,2.37
2023-02-12T14:05:06.084Z,2.34
2023-02-12T14:07:45.587Z,2.33
2023-02-12T14:10:22.219Z,2.30
2023-02-12T14:12:50.725Z,2.27
2023-02-12T14:15:26.890Z,2.26
2023-02-12T14:17:55.848Z,2.24
2023-02-12T14:20:25.364Z,2.22
2023-02-12T14:23:05.283Z,2.22
2023-02-12T14:25:39.992Z,2.22
2023-02-12T14:28:12.889Z,2.20
2023-02-12T14:30:41.617Z,2.25
2023-02-12T14:33:20.396Z,2.25
2023-02-12T14:35:49.494Z,2.21
2023-02-12T14:38:48.115Z,2.16
2023-02-12T14:41:37.527Z,2.15
2023-02-12T14:44:23.939Z,2.10
2023-02-12T14:46:52.568Z,2.08
2023-02-12T14:49:22.456Z,2.05
2023-02-12T14:51:53.167Z,1.98
2023-02-12T14:54:26.567Z,1.88
2023-02-12T14:56:56.661Z,1.86
2023-02-12T14:59:26.020Z,1.88
2023-02-12T15:01:54.681Z,1.89
2023-02-12T15:04:25.880Z,1.84
2023-02-12T15:06:56.285Z,1.84
2023-02-12T15:09:28.270Z,1.84
2023-02-12T15:12:02.600Z,1.88
2023-02-12T15:14:32.253Z,1.86
2023-02-12T15:17:03.767Z,1.82
2023-02-12T15:19:42.817Z,1.83
2023-02-12T15:22:21.518Z,1.84
2023-02-12T15:24:49.257Z,1.84
2023-02-12T15:27:18.555Z,1.83
2023-02-12T15:29:47.222Z,1.79
2023-02-12T15:32:17.241Z,1.75
2023-02-12T15:34:45.548Z,1.71
2023-02-12T15:37:19.064Z,1.67
2023-02-12T15:39:48.080Z,1.66
2023-02-12T15:42:28.190Z,1.59
2023-02-12T15:45:03.011Z,1.65
2023-02-12T15:47:30.681Z,1.72
2023-02-12T15:50:00.436Z,1.69
2023-02-12T15:52:34.650Z,1.67
2023-02-12T15:55:05.021Z,1.64
2023-02-12T15:57:34.656Z,1.59
2023-02-12T16:00:05.536Z,1.56
2023-02-12T16:02:33.656Z,1.55
2023-02-12T16:05:03.268Z,1.66
2023-02-12T16:07:33.132Z,1.67
2023-02-12T16:10:00.908Z,1.66
2023-02-12T16:12:31.592Z,1.52
2023-02-12T16:15:01.006Z,1.40
2023-02-12T16:17:30.155Z,1.31
2023-02-12T16:19:59.032Z,1.20
2023-02-12T16:22:32.250Z,1.13
2023-02-12T16:25:01.365Z,1.12
2023-02-12T16:27:30.964Z,1.13
2023-02-12T16:30:01.350Z,1.15
2023-02-12T16:32:38.846Z,1.20
2023-02-12T16:35:08.524Z,1.32
2023-02-12T16:37:48.009Z,1.43
2023-02-12T16:40:33.558Z,1.45
2023-02-12T16:43:04.070Z,1.47
2023-02-12T16:45:40.195Z,1.49
2023-02-12T16:48:10.073Z,1.49
2023-02-12T16:50:39.457Z,1.48
2023-02-12T16:53:07.983Z,1.42
2023-02-12T16:55:36.718Z,1.41
2023-02-12T16:58:04.584Z,1.44
2023-02-12T17:00:32.336Z,1.50
2023-02-12T17:03:01.819Z,1.54
2023-02-12T17:05:29.512Z,1.57
2023-02-12T17:07:57.228Z,1.62
2023-02-12T17:10:24.910Z,1.70
2023-02-12T17:12:53.539Z,1.71
2023-02-12T17:15:23.300Z,1.71
2023-02-12T17:17:50.909Z,1.71
2023-02-12T17:20:20.139Z,1.75
2023-02-12T17:22:51.008Z,1.74
2023-02-12T17:25:18.851Z,1.72
2023-02-12T17:27:46.761Z,1.72
2023-02-12T17:30:16.543Z,1.81
2023-02-12T17:32:44.273Z,1.87
2023-02-12T17:35:12.027Z,1.85
2023-02-12T17:37:41.085Z,1.82
2023-02-12T17:40:11.245Z,1.80
2023-02-12T17:42:38.925Z,1.88
2023-02-12T17:45:07.305Z,1.83
2023-02-12T17:47:39.770Z,1.82
2023-02-12T17:50:09.036Z,1.84
2023-02-12T17:52:36.705Z,1.78
2023-02-12T17:55:06.643Z,1.72
2023-02-12T17:57:34.644Z,1.61
2023-02-12T18:00:02.392Z,1.50
2023-02-12T18:02:30.169Z,1.48
2023-02-12T18:04:57.841Z,1.45
2023-02-12T18:07:25.528Z,1.46
2023-02-12T18:09:53.241Z,1.43
2023-02-12T18:12:22.218Z,1.46
2023-02-12T18:14:49.837Z,1.48
2023-02-12T18:17:17.434Z,1.50
2023-02-12T18:19:45.151Z,1.50
2023-02-12T18:22:12.753Z,1.56
2023-02-12T18:24:41.365Z,1.52
2023-02-12T18:27:11.688Z,1.52
2023-02-12T18:29:41.116Z,1.51
2023-02-12T18:32:14.505Z,1.47
2023-02-12T18:34:42.482Z,1.47
2023-02-12T18:37:10.768Z,1.43
2023-02-12T18:39:38.374Z,1.37
2023-02-12T18:42:06.208Z,1.32
2023-02-12T18:44:34.095Z,1.31
2023-02-12T18:47:03.099Z,1.30
2023-02-12T18:49:30.914Z,1.35
2023-02-12T18:51:58.586Z,1.39
2023-02-12T18:54:26.334Z,1.41
2023-02-12T18:56:54.203Z,1.44
2023-02-12T18:59:22.557Z,1.48
2023-02-12T19:01:51.583Z,1.47
2023-02-12T19:04:23.222Z,1.50
2023-02-12T19:06:52.306Z,1.50
2023-02-12T19:09:21.600Z,1.49
2023-02-12T19:11:50.084Z,1.49
2023-02-12T19:14:18.443Z,1.46
2023-02-12T19:16:46.918Z,1.48
2023-02-12T19:19:15.744Z,1.47
2023-02-12T19:21:44.862Z,1.54
2023-02-12T19:24:13.535Z,1.57
2023-02-12T19:26:41.624Z,1.61
2023-02-12T19:29:09.324Z,1.59
2023-02-12T19:31:38.122Z,1.60
2023-02-12T19:34:06.946Z,1.64
2023-02-12T19:36:36.284Z,1.68
2023-02-12T19:39:06.163Z,1.69
2023-02-12T19:41:40.635Z,1.70
2023-02-12T19:44:10.324Z,1.68
2023-02-12T19:46:39.282Z,1.63
2023-02-12T19:49:07.613Z,1.66
2023-02-12T19:51:35.298Z,1.70
2023-02-12T19:54:04.195Z,1.72
2023-02-12T19:56:34.648Z,1.75
2023-02-12T19:59:02.330Z,1.81
2023-02-12T20:01:30.219Z,1.87
2023-02-12T20:03:58.113Z,1.87
2023-02-12T20:06:27.114Z,1.89
2023-02-12T20:08:54.867Z,1.88
2023-02-12T20:11:23.877Z,1.84
2023-02-12T20:13:53.328Z,1.85
2023-02-12T20:16:22.941Z,1.94
2023-02-12T20:18:51.765Z,1.95
2023-02-12T20:21:21.762Z,1.95
2023-02-12T20:23:49.443Z,1.92
2023-02-12T20:26:18.171Z,1.95
2023-02-12T20:28:45.839Z,1.92
2023-02-12T20:31:16.198Z,1.92
2023-02-12T20:33:44.205Z,1.89
2023-02-12T20:36:12.700Z,1.92
2023-02-12T20:38:40.945Z,1.91
2023-02-12T20:41:09.790Z,1.89
2023-02-12T20:43:38.364Z,1.87
2023-02-12T20:46:06.827Z,1.88
2023-02-12T20:48:36.733Z,1.87
2023-02-12T20:51:05.139Z,1.89
2023-02-12T20:53:33.956Z,1.87
2023-02-12T20:56:02.252Z,1.89
2023-02-12T20:58:29.983Z,1.92
2023-02-12T21:01:03.961Z,1.95
2023-02-12T21:03:31.691Z,1.93
2023-02-12T21:06:00.878Z,1.88
2023-02-12T21:08:28.696Z,1.83
2023-02-12T21:11:00.096Z,1.87
2023-02-12T21:13:27.902Z,1.89
2023-02-12T21:16:03.800Z,1.88
2023-02-12T21:18:31.553Z,1.85
2023-02-12T21:21:03.104Z,1.85
2023-02-12T21:23:30.885Z,1.85
2023-02-12T21:26:02.995Z,1.90
2023-02-12T21:28:30.731Z,1.90
2023-02-12T21:30:58.365Z,1.87
2023-02-12T21:33:26.049Z,1.89
2023-02-12T21:35:53.737Z,1.90
2023-02-12T21:38:22.781Z,1.85
2023-02-12T21:40:50.434Z,1.82
2023-02-12T21:43:18.061Z,1.78
2023-02-12T21:45:52.337Z,1.79
2023-02-12T21:48:19.956Z,1.81
2023-02-12T21:50:47.644Z,1.85
2023-02-12T21:53:15.293Z,1.88
2023-02-12T21:55:44.347Z,1.89
2023-02-12T21:58:12.064Z,1.90
2023-02-12T22:00:39.781Z,1.88
2023-02-12T22:03:07.549Z,1.85
2023-02-12T22:05:35.342Z,1.88
2023-02-12T22:08:03.312Z,1.94
2023-02-12T22:10:30.916Z,2.01
2023-02-12T22:12:59.982Z,1.96
2023-02-12T22:15:27.660Z,1.95
2023-02-12T22:17:55.335Z,1.94
2023-02-12T22:20:23.056Z,1.91
2023-02-12T22:22:50.719Z,1.95
2023-02-12T22:25:18.441Z,1.92
2023-02-12T22:27:46.116Z,1.90
2023-02-12T22:30:16.706Z,1.90
2023-02-12T22:32:44.476Z,1.94
2023-02-12T22:35:12.226Z,1.88
2023-02-12T22:37:40.303Z,1.80
2023-02-12T22:40:08.890Z,1.78
2023-02-12T22:42:36.707Z,1.75
2023-02-12T22:45:05.679Z,1.72
2023-02-12T22:47:34.792Z,1.73
2023-02-12T22:50:02.446Z,1.71
2023-02-12T22:52:30.082Z,1.75
2023-02-12T22:54:57.689Z,1.77
2023-02-12T22:57:25.496Z,1.76
2023-02-12T22:59:53.184Z,1.73
2023-02-12T23:02:20.856Z,1.65
2023-02-12T23:04:49.831Z,1.68
2023-02-12T23:07:17.432Z,1.71
2023-02-12T23:09:45.093Z,1.75
2023-02-12T23:12:12.964Z,1.76
2023-02-12T23:14:40.686Z,1.72
2023-02-12T23:17:08.285Z,1.74
2023-02-12T23:19:35.940Z,1.75
2023-02-12T23:22:04.964Z,1.75
2023-02-12T23:24:32.636Z,1.78
2023-02-12T23:27:00.305Z,1.78
2023-02-12T23:29:27.927Z,1.77
2023-02-12T23:31:55.796Z,1.76
2023-02-12T23:34:23.496Z,1.72
2023-02-12T23:36:51.255Z,1.69
2023-02-12T23:39:20.234Z,1.74
2023-02-12T23:41:47.960Z,1.77
2023-02-12T23:44:15.791Z,1.79
2023-02-12T23:46:43.440Z,1.77
2023-02-12T23:49:11.195Z,1.80
2023-02-12T23:51:39.159Z,1.80
2023-02-12T23:54:06.850Z,1.77
2023-02-12T23:56:35.888Z,1.80
2023-02-12T23:59:03.607Z,1.77
